Time;durP1;ratioP1;P1;durP2;ratioP2;P2;SDS_P1;SDS_P2;PMS_P1;PMS_P2;Temp;Humidity;BMP_temperature;BMP_pressure;BME280_temperature;BME280_humidity;BME280_pressure;Samples;Min_cycle;Max_cycle;Signal;HPM_P1;HPM_P2
2022/03/31 00:00:31;;;;;;;23.77;18.55;;;;;;;;;;5044013;28;20388;-66
2022/03/31 00:03:17;;;;;;;26.15;19.50;;;;;;;;;;5028941;28;20034;-64
2022/03/31 00:06:02;;;;;;;27.25;18.63;;;;;;;;;;5020274;28;20045;-62
2022/03/31 00:08:48;;;;;;;22.85;16.63;;;;;;;;;;5034952;28;20139;-62
2022/03/31 00:11:33;;;;;;;23.42;16.40;;;;;;;;;;5031607;28;20209;-62
2022/03/31 00:14:18;;;;;;;24.50;18.48;;;;;;;;;;5034913;28;20037;-63
2022/03/31 00:17:03;;;;;;;24.55;17.13;;;;;;;;;;5035865;28;20468;-66
2022/03/31 00:19:48;;;;;;;23.30;16.63;;;;;;;;;;5034900;28;20083;-70
2022/03/31 00:22:34;;;;;;;25.67;18.27;;;;;;;;;;5035444;28;20080;-63
2022/03/31 00:25:19;;;;;;;22.23;16.85;;;;;;;;;;5033587;28;20037;-61
2022/03/31 00:28:04;;;;;;;25.95;18.90;;;;;;;;;;5035395;28;20021;-62
2022/03/31 00:30:50;;;;;;;25.95;18.75;;;;;;;;;;5028106;28;20048;-62
2022/03/31 00:33:35;;;;;;;23.73;17.27;;;;;;;;;;5032612;28;20585;-62
2022/03/31 00:36:20;;;;;;;22.10;17.20;;;;;;;;;;5049281;28;20032;-62
2022/03/31 00:42:10;;;;;;;26.30;18.10;;;;;;;;;;5049319;28;20028;-62
2022/03/31 00:44:55;;;;;;;24.83;18.63;;;;;;;;;;5034306;28;20081;-61
2022/03/31 00:47:40;;;;;;;23.88;18.67;;;;;;;;;;5035764;28;20024;-62
2022/03/31 00:50:26;;;;;;;24.60;18.13;;;;;;;;;;5034638;28;20083;-64
2022/03/31 00:53:11;;;;;;;24.15;17.80;;;;;;;;;;5034639;28;20513;-62
2022/03/31 00:55:58;;;;;;;23.55;17.05;;;;;;;;;;5044884;28;20025;-72
2022/03/31 00:58:44;;;;;;;24.15;18.00;;;;;;;;;;5014903;28;20034;-60
2022/03/31 01:01:31;;;;;;;22.85;17.27;;;;;;;;;;5047586;28;20068;-63
2022/03/31 01:04:16;;;;;;;25.98;18.10;;;;;;;;;;5035605;28;20031;-62
2022/03/31 01:07:01;;;;;;;23.10;16.83;;;;;;;;;;5032903;28;20095;-62
2022/03/31 01:09:46;;;;;;;25.23;17.30;;;;;;;;;;5032649;28;20020;-62
2022/03/31 01:12:33;;;;;;;22.38;16.25;;;;;;;;;;5035505;28;20040;-62
2022/03/31 01:15:19;;;;;;;23.33;17.63;;;;;;;;;;5031118;28;20488;-62
2022/03/31 01:18:05;;;;;;;23.55;16.02;;;;;;;;;;5014740;28;20017;-62
2022/03/31 01:20:50;;;;;;;20.95;15.75;;;;;;;;;;5021737;28;20045;-62
2022/03/31 01:23:36;;;;;;;21.10;16.42;;;;;;;;;;5035030;28;20369;-62
2022/03/31 01:26:22;;;;;;;24.83;16.35;;;;;;;;;;5033458;28;20430;-62
2022/03/31 01:29:11;;;;;;;19.17;13.68;;;;;;;;;;5024822;28;20427;-63
2022/03/31 01:31:57;;;;;;;19.08;14.13;;;;;;;;;;5027820;28;20078;-61
2022/03/31 01:34:43;;;;;;;22.05;14.35;;;;;;;;;;5034689;28;20498;-66
2022/03/31 01:37:28;;;;;;;21.02;15.18;;;;;;;;;;5031354;28;20021;-64
2022/03/31 01:40:13;;;;;;;18.88;13.93;;;;;;;;;;5044730;28;20037;-61
2022/03/31 01:42:58;;;;;;;18.73;14.25;;;;;;;;;;5034741;28;20464;-62
2022/03/31 01:45:44;;;;;;;19.98;14.82;;;;;;;;;;5034670;28;20041;-62
2022/03/31 01:48:29;;;;;;;19.67;14.15;;;;;;;;;;5034670;28;20029;-64
2022/03/31 01:51:14;;;;;;;18.50;13.50;;;;;;;;;;5034011;28;20043;-61
2022/03/31 01:54:00;;;;;;;19.13;14.75;;;;;;;;;;5017046;28;20065;-59
2022/03/31 01:56:45;;;;;;;18.35;13.80;;;;;;;;;;5033021;28;20392;-69
2022/03/31 01:59:37;;;;;;;18.85;13.80;;;;;;;;;;5034600;28;20028;-69
2022/03/31 02:02:23;;;;;;;18.15;13.05;;;;;;;;;;5033418;28;20043;-70
2022/03/31 02:05:08;;;;;;;19.58;13.75;;;;;;;;;;5034452;28;20036;-69
2022/03/31 02:07:54;;;;;;;17.73;12.23;;;;;;;;;;5030302;28;20044;-68
2022/03/31 02:10:39;;;;;;;16.58;12.43;;;;;;;;;;5047473;28;20472;-60
2022/03/31 02:13:25;;;;;;;21.02;14.32;;;;;;;;;;5024916;28;20056;-70
2022/03/31 02:16:10;;;;;;;18.20;13.65;;;;;;;;;;5034642;28;20172;-71
2022/03/31 02:18:55;;;;;;;21.27;15.43;;;;;;;;;;5033122;28;20405;-71
2022/03/31 02:21:43;;;;;;;19.45;13.43;;;;;;;;;;5034292;28;20028;-70
2022/03/31 02:24:30;;;;;;;17.08;12.25;;;;;;;;;;5042500;28;20116;-70
2022/03/31 02:27:15;;;;;;;16.88;13.00;;;;;;;;;;5034185;28;20029;-72
2022/03/31 02:30:00;;;;;;;18.05;13.15;;;;;;;;;;5031567;28;20113;-70
2022/03/31 02:32:45;;;;;;;18.77;12.90;;;;;;;;;;5028494;28;20042;-73
2022/03/31 02:35:31;;;;;;;17.65;12.13;;;;;;;;;;5036358;28;20032;-70
2022/03/31 02:38:16;;;;;;;17.95;13.35;;;;;;;;;;5038908;28;20036;-71
2022/03/31 02:41:03;;;;;;;18.23;13.68;;;;;;;;;;5034547;28;20487;-71
2022/03/31 02:43:48;;;;;;;16.77;12.40;;;;;;;;;;5032865;28;20376;-70
2022/03/31 02:46:33;;;;;;;17.85;13.13;;;;;;;;;;5033886;28;20515;-61
2022/03/31 02:49:19;;;;;;;18.88;14.48;;;;;;;;;;5032425;28;20051;-71
2022/03/31 02:52:04;;;;;;;17.33;12.82;;;;;;;;;;5033745;28;20037;-65
2022/03/31 02:58:04;;;;;;;17.15;12.77;;;;;;;;;;5032945;28;20463;-61
2022/03/31 03:00:49;;;;;;;20.17;15.20;;;;;;;;;;5032207;28;20041;-66
2022/03/31 03:03:34;;;;;;;18.92;13.98;;;;;;;;;;5033821;28;20045;-65
2022/03/31 03:06:20;;;;;;;18.73;14.38;;;;;;;;;;5019844;28;20052;-71
2022/03/31 03:09:05;;;;;;;18.52;14.68;;;;;;;;;;5017006;28;20037;-60
2022/03/31 03:11:51;;;;;;;19.70;14.48;;;;;;;;;;5022615;28;20025;-62
2022/03/31 03:14:36;;;;;;;20.50;14.40;;;;;;;;;;5021552;28;20396;-63
2022/03/31 03:17:21;;;;;;;19.58;14.23;;;;;;;;;;5025406;28;20108;-60
2022/03/31 03:20:07;;;;;;;19.83;14.77;;;;;;;;;;5025720;28;20560;-64
2022/03/31 03:22:53;;;;;;;18.40;15.13;;;;;;;;;;5027139;28;20026;-63
2022/03/31 03:25:38;;;;;;;20.52;14.10;;;;;;;;;;5015513;28;20042;-69
2022/03/31 03:28:23;;;;;;;20.02;15.18;;;;;;;;;;5026850;28;20044;-61
2022/03/31 03:31:08;;;;;;;19.35;14.82;;;;;;;;;;5018079;28;20435;-63
2022/03/31 03:33:54;;;;;;;19.50;15.00;;;;;;;;;;5027063;28;20555;-62
2022/03/31 03:36:39;;;;;;;19.40;14.05;;;;;;;;;;5026505;28;20120;-63
2022/03/31 03:39:24;;;;;;;20.35;15.35;;;;;;;;;;5027726;28;20068;-62
2022/03/31 03:42:09;;;;;;;19.42;15.27;;;;;;;;;;5029342;28;20464;-71
2022/03/31 03:44:55;;;;;;;20.77;15.25;;;;;;;;;;5031097;28;20521;-63
2022/03/31 03:47:40;;;;;;;20.25;16.50;;;;;;;;;;5029684;28;20026;-64
2022/03/31 03:50:26;;;;;;;19.48;15.07;;;;;;;;;;5023973;28;20480;-62
2022/03/31 03:53:11;;;;;;;18.73;15.13;;;;;;;;;;5029570;28;20033;-63
2022/03/31 03:55:56;;;;;;;19.75;15.93;;;;;;;;;;5030859;28;20032;-63
2022/03/31 03:58:41;;;;;;;19.83;15.65;;;;;;;;;;5025535;28;20456;-64
2022/03/31 04:01:26;;;;;;;19.90;15.55;;;;;;;;;;5028349;28;20108;-70
2022/03/31 04:04:12;;;;;;;19.27;14.88;;;;;;;;;;5025126;28;20108;-60
2022/03/31 04:06:57;;;;;;;21.83;15.48;;;;;;;;;;5029156;28;20060;-61
2022/03/31 04:09:46;;;;;;;20.60;15.68;;;;;;;;;;5030244;28;20599;-62
2022/03/31 04:12:32;;;;;;;18.75;15.55;;;;;;;;;;5029036;28;20045;-63
2022/03/31 04:15:17;;;;;;;20.98;16.63;;;;;;;;;;5023531;28;20476;-61
2022/03/31 04:18:05;;;;;;;21.50;15.52;;;;;;;;;;5029085;28;20112;-61
2022/03/31 04:20:50;;;;;;;20.83;15.68;;;;;;;;;;5030831;28;20038;-70
2022/03/31 04:23:36;;;;;;;21.48;15.48;;;;;;;;;;5028856;28;20044;-71
2022/03/31 04:26:22;;;;;;;20.60;14.52;;;;;;;;;;5031700;28;20417;-71
2022/03/31 04:29:09;;;;;;;23.42;15.75;;;;;;;;;;5029245;28;20033;-71
2022/03/31 04:31:54;;;;;;;21.80;15.70;;;;;;;;;;5030517;28;20035;-70
2022/03/31 04:34:39;;;;;;;19.25;16.20;;;;;;;;;;5028529;28;20491;-70
2022/03/31 04:37:24;;;;;;;20.70;14.60;;;;;;;;;;5029847;28;20464;-71
2022/03/31 04:40:10;;;;;;;22.00;16.73;;;;;;;;;;5016387;28;20156;-71
2022/03/31 04:42:55;;;;;;;18.65;14.75;;;;;;;;;;5029257;28;20123;-73
2022/03/31 04:45:41;;;;;;;20.23;15.73;;;;;;;;;;5015173;28;20155;-71
2022/03/31 04:48:26;;;;;;;19.70;16.45;;;;;;;;;;5027884;28;20046;-73
2022/03/31 04:51:12;;;;;;;19.08;15.50;;;;;;;;;;5029773;28;20124;-71
2022/03/31 04:53:57;;;;;;;22.35;16.85;;;;;;;;;;5027468;28;20472;-71
2022/03/31 04:56:43;;;;;;;21.60;16.63;;;;;;;;;;5029123;28;20189;-63
2022/03/31 04:59:29;;;;;;;20.92;15.85;;;;;;;;;;5042591;28;20049;-60
2022/03/31 05:02:14;;;;;;;21.63;17.05;;;;;;;;;;5028497;28;20424;-62
2022/03/31 05:04:59;;;;;;;20.20;16.13;;;;;;;;;;5023676;28;20036;-60
2022/03/31 05:07:44;;;;;;;19.08;15.38;;;;;;;;;;5029181;28;20076;-63
2022/03/31 05:10:29;;;;;;;20.80;15.90;;;;;;;;;;5026555;28;20029;-61
2022/03/31 05:13:15;;;;;;;20.17;15.93;;;;;;;;;;5022298;28;20044;-60
2022/03/31 05:16:00;;;;;;;22.05;16.95;;;;;;;;;;5028569;28;20025;-70
2022/03/31 05:18:47;;;;;;;22.58;17.98;;;;;;;;;;5028627;28;20125;-71
2022/03/31 05:21:33;;;;;;;20.65;16.55;;;;;;;;;;5034757;28;20040;-71
2022/03/31 05:24:18;;;;;;;19.13;15.88;;;;;;;;;;5043724;28;20111;-69
2022/03/31 05:27:03;;;;;;;21.13;16.48;;;;;;;;;;5029333;28;20044;-70
2022/03/31 05:29:48;;;;;;;18.35;16.02;;;;;;;;;;5027790;28;20604;-70
2022/03/31 05:32:34;;;;;;;17.60;14.52;;;;;;;;;;5028543;28;20033;-63
2022/03/31 05:35:19;;;;;;;20.48;15.10;;;;;;;;;;5028411;28;20032;-73
2022/03/31 05:38:05;;;;;;;21.02;15.68;;;;;;;;;;5032656;28;20500;-71
2022/03/31 05:40:50;;;;;;;18.45;14.60;;;;;;;;;;5027391;28;20037;-71
2022/03/31 05:43:35;;;;;;;19.85;14.82;;;;;;;;;;5029119;28;20122;-71
2022/03/31 05:46:21;;;;;;;18.17;15.02;;;;;;;;;;5026647;28;20033;-74
2022/03/31 05:49:07;;;;;;;18.63;15.23;;;;;;;;;;5022111;28;20025;-70
2022/03/31 05:51:52;;;;;;;19.17;15.57;;;;;;;;;;5027518;28;20384;-69
2022/03/31 05:54:37;;;;;;;22.45;17.10;;;;;;;;;;5029020;28;20112;-59
2022/03/31 05:57:23;;;;;;;22.35;18.10;;;;;;;;;;5027410;28;20052;-63
2022/03/31 06:00:10;;;;;;;20.23;16.50;;;;;;;;;;5027621;28;20037;-61
2022/03/31 06:02:55;;;;;;;22.02;16.08;;;;;;;;;;5025058;28;20388;-63
2022/03/31 06:05:41;;;;;;;20.80;16.73;;;;;;;;;;5016650;28;20532;-60
2022/03/31 06:08:27;;;;;;;19.40;15.57;;;;;;;;;;5032981;28;20171;-63
2022/03/31 06:11:12;;;;;;;21.00;15.30;;;;;;;;;;5036181;28;20064;-67
2022/03/31 06:13:57;;;;;;;19.33;15.27;;;;;;;;;;5035762;28;20032;-67
2022/03/31 06:16:43;;;;;;;20.52;15.73;;;;;;;;;;5041566;28;20027;-65
2022/03/31 06:19:28;;;;;;;20.02;15.48;;;;;;;;;;5035686;28;20035;-64
2022/03/31 06:22:13;;;;;;;23.15;16.40;;;;;;;;;;5032708;28;20025;-66
2022/03/31 06:24:58;;;;;;;23.38;17.02;;;;;;;;;;5013961;28;20202;-66
2022/03/31 06:27:44;;;;;;;23.00;17.98;;;;;;;;;;5031572;28;20276;-63
2022/03/31 06:30:30;;;;;;;20.48;15.93;;;;;;;;;;5030241;28;20025;-63
2022/03/31 06:33:16;;;;;;;20.75;16.27;;;;;;;;;;5018047;28;20036;-63
2022/03/31 06:36:01;;;;;;;21.05;16.75;;;;;;;;;;5045389;28;20395;-61
2022/03/31 06:38:46;;;;;;;21.05;16.95;;;;;;;;;;5016707;28;20033;-63
2022/03/31 06:41:32;;;;;;;24.35;16.48;;;;;;;;;;5042652;28;20108;-62
2022/03/31 06:44:19;;;;;;;23.55;18.15;;;;;;;;;;5031396;28;20061;-63
2022/03/31 06:47:05;;;;;;;21.92;16.55;;;;;;;;;;5034932;28;20192;-65
2022/03/31 06:49:50;;;;;;;20.88;15.85;;;;;;;;;;5036104;28;20021;-60
2022/03/31 06:52:36;;;;;;;21.35;16.10;;;;;;;;;;5041437;28;20039;-61
2022/03/31 06:55:21;;;;;;;19.00;15.35;;;;;;;;;;5037834;28;20028;-63
2022/03/31 06:58:06;;;;;;;21.98;16.50;;;;;;;;;;5030254;28;20048;-63
2022/03/31 07:00:52;;;;;;;21.23;16.50;;;;;;;;;;5030651;28;20391;-63
2022/03/31 07:03:37;;;;;;;21.33;15.73;;;;;;;;;;5027802;28;20484;-61
2022/03/31 07:06:23;;;;;;;19.50;15.88;;;;;;;;;;5041193;28;20045;-61
2022/03/31 07:09:08;;;;;;;21.35;16.08;;;;;;;;;;5025085;28;20033;-62
2022/03/31 07:11:55;;;;;;;20.48;15.65;;;;;;;;;;5027406;28;20474;-62
2022/03/31 07:14:40;;;;;;;21.60;17.10;;;;;;;;;;5010697;28;20163;-64
2022/03/31 07:17:25;;;;;;;20.98;16.85;;;;;;;;;;5030560;28;20383;-62
2022/03/31 07:20:11;;;;;;;20.13;16.33;;;;;;;;;;5035850;28;20037;-60
2022/03/31 07:22:56;;;;;;;22.50;16.63;;;;;;;;;;5030922;28;20021;-69
2022/03/31 07:25:41;;;;;;;22.35;16.88;;;;;;;;;;5029161;28;20057;-68
2022/03/31 07:28:27;;;;;;;21.00;17.42;;;;;;;;;;5034736;28;20100;-68
2022/03/31 07:31:12;;;;;;;19.15;15.80;;;;;;;;;;5029699;28;20036;-69
2022/03/31 07:33:57;;;;;;;20.80;15.77;;;;;;;;;;5028226;28;20030;-69
2022/03/31 07:36:43;;;;;;;21.38;17.15;;;;;;;;;;5027849;28;20032;-68
2022/03/31 07:39:28;;;;;;;21.75;16.80;;;;;;;;;;5029943;28;20619;-67
2022/03/31 07:42:13;;;;;;;21.27;16.02;;;;;;;;;;5029820;28;20028;-61
2022/03/31 07:44:59;;;;;;;23.38;17.15;;;;;;;;;;5028938;28;20048;-70
2022/03/31 07:47:44;;;;;;;21.75;16.92;;;;;;;;;;5026775;28;20041;-69
2022/03/31 07:50:30;;;;;;;24.33;17.15;;;;;;;;;;5026562;28;20073;-69
2022/03/31 07:53:17;;;;;;;21.50;17.05;;;;;;;;;;5036634;28;20029;-69
2022/03/31 07:56:03;;;;;;;22.27;16.88;;;;;;;;;;5028040;28;20688;-70
2022/03/31 07:58:48;;;;;;;21.42;17.85;;;;;;;;;;5044067;28;20088;-72
2022/03/31 08:01:33;;;;;;;23.05;18.27;;;;;;;;;;5029144;28;20362;-70
2022/03/31 08:04:20;;;;;;;24.75;17.40;;;;;;;;;;5029736;28;20044;-64
2022/03/31 08:07:05;;;;;;;23.65;18.08;;;;;;;;;;5027477;28;20064;-63
2022/03/31 08:09:50;;;;;;;22.17;16.60;;;;;;;;;;5029798;28;20092;-66
2022/03/31 08:12:36;;;;;;;21.33;16.75;;;;;;;;;;5028133;28;20030;-64
2022/03/31 08:15:23;;;;;;;21.63;17.27;;;;;;;;;;5015740;28;20029;-63
2022/03/31 08:18:08;;;;;;;21.13;16.58;;;;;;;;;;5027747;28;20378;-60
2022/03/31 08:20:55;;;;;;;21.02;17.45;;;;;;;;;;5029804;28;20167;-68
2022/03/31 08:23:40;;;;;;;25.67;17.13;;;;;;;;;;5029109;28;20463;-69
2022/03/31 08:26:26;;;;;;;21.00;17.27;;;;;;;;;;5029833;28;20471;-70
2022/03/31 08:29:11;;;;;;;22.90;17.08;;;;;;;;;;5026006;28;20037;-68
2022/03/31 08:31:57;;;;;;;23.05;17.30;;;;;;;;;;5025323;28;20171;-68
2022/03/31 08:34:42;;;;;;;23.95;19.15;;;;;;;;;;5023335;28;20052;-69
2022/03/31 08:37:27;;;;;;;23.08;17.90;;;;;;;;;;5026290;28;20144;-63
2022/03/31 08:40:17;;;;;;;26.08;19.25;;;;;;;;;;5029005;28;20432;-69
2022/03/31 08:43:02;;;;;;;;;;;;;;;;;;5028442;28;20034;-68
2022/03/31 08:45:55;;;;;;;22.27;16.73;;;;;;;;;;5028161;28;20005;-68
2022/03/31 08:48:40;;;;;;;24.25;18.85;;;;;;;;;;5027996;28;20029;-67
2022/03/31 08:51:26;;;;;;;25.60;18.55;;;;;;;;;;5028876;28;20099;-68
2022/03/31 08:54:11;;;;;;;24.85;18.83;;;;;;;;;;5027569;28;20098;-68
2022/03/31 08:56:58;;;;;;;23.35;17.15;;;;;;;;;;5024704;28;20090;-67
2022/03/31 08:59:44;;;;;;;24.48;18.00;;;;;;;;;;5014008;28;20062;-71
2022/03/31 09:02:29;;;;;;;23.05;17.70;;;;;;;;;;5028801;28;20060;-70
2022/03/31 09:05:14;;;;;;;24.83;19.80;;;;;;;;;;5026844;28;20055;-69
2022/03/31 09:08:02;;;;;;;22.98;18.95;;;;;;;;;;5009717;28;20057;-70
2022/03/31 09:10:49;;;;;;;25.92;18.55;;;;;;;;;;5007770;28;20061;-69
2022/03/31 09:13:35;;;;;;;23.85;18.05;;;;;;;;;;5003168;28;20477;-64
2022/03/31 09:16:28;;;;;;;27.40;19.50;;;;;;;;;;4990397;28;20029;-61
2022/03/31 09:19:15;;;;;;;23.10;17.20;;;;;;;;;;5001930;28;20566;-60
2022/03/31 09:22:01;;;;;;;23.15;18.63;;;;;;;;;;5008524;28;20041;-60
2022/03/31 09:24:46;;;;;;;24.63;18.88;;;;;;;;;;5009368;28;20369;-60
2022/03/31 09:27:31;;;;;;;24.08;20.02;;;;;;;;;;5004817;28;20037;-61
2022/03/31 09:30:17;;;;;;;26.75;20.58;;;;;;;;;;5003599;28;20113;-61
2022/03/31 09:33:05;;;;;;;22.50;17.77;;;;;;;;;;5008005;28;20028;-67
2022/03/31 09:35:56;;;;;;;25.85;20.10;;;;;;;;;;5005587;28;20022;-68
2022/03/31 09:38:45;;;;;;;25.30;18.67;;;;;;;;;;5007388;28;20029;-68
2022/03/31 09:41:34;;;;;;;25.52;20.15;;;;;;;;;;5021027;28;20053;-66
2022/03/31 09:44:22;;;;;;;22.58;18.85;;;;;;;;;;5008124;28;20269;-67
2022/03/31 09:47:07;;;;;;;27.50;19.55;;;;;;;;;;5007688;28;20033;-66
2022/03/31 09:49:54;;;;;;;25.50;19.27;;;;;;;;;;5006837;28;20087;-64
2022/03/31 09:52:40;;;;;;;23.95;19.20;;;;;;;;;;5006993;28;20449;-63
2022/03/31 09:55:25;;;;;;;24.55;18.88;;;;;;;;;;5005737;28;20453;-65
2022/03/31 09:58:13;;;;;;;27.17;20.83;;;;;;;;;;5006901;28;20026;-63
2022/03/31 10:00:59;;;;;;;24.33;19.65;;;;;;;;;;5006474;28;20041;-63
2022/03/31 10:03:45;;;;;;;24.02;18.98;;;;;;;;;;5009438;28;20018;-61
2022/03/31 10:06:32;;;;;;;25.85;20.38;;;;;;;;;;5022359;28;20037;-59
2022/03/31 10:09:17;;;;;;;23.90;19.00;;;;;;;;;;5037555;28;20033;-61
2022/03/31 10:12:10;;;;;;;24.95;19.13;;;;;;;;;;5025870;28;20018;-66
2022/03/31 10:14:55;;;;;;;24.40;19.90;;;;;;;;;;5028347;28;20120;-66
2022/03/31 10:17:41;;;;;;;23.80;19.08;;;;;;;;;;5025766;28;20029;-66
2022/03/31 10:20:26;;;;;;;25.13;19.45;;;;;;;;;;5042989;28;20377;-67
2022/03/31 10:26:26;;;;;;;25.73;19.45;;;;;;;;;;5026105;28;20112;-66
2022/03/31 10:29:13;;;;;;;25.90;19.40;;;;;;;;;;5026579;28;20021;-66
2022/03/31 10:31:59;;;;;;;24.45;19.52;;;;;;;;;;5035196;28;20045;-61
2022/03/31 10:34:48;;;;;;;25.70;19.73;;;;;;;;;;5008208;28;20022;-60
2022/03/31 10:37:35;;;;;;;24.70;18.63;;;;;;;;;;5013849;28;20033;-60
2022/03/31 10:40:28;;;;;;;26.90;21.65;;;;;;;;;;5021307;28;20469;-63
2022/03/31 10:43:24;;;;;;;26.00;20.70;;;;;;;;;;5024761;28;20030;-62
2022/03/31 10:46:19;;;;;;;28.33;20.67;;;;;;;;;;5010369;28;20180;-69
2022/03/31 10:49:09;;;;;;;24.17;19.17;;;;;;;;;;5017154;28;20195;-67
2022/03/31 10:51:54;;;;;;;27.75;20.77;;;;;;;;;;5018412;28;20105;-69
2022/03/31 10:54:39;;;;;;;28.00;20.08;;;;;;;;;;5012411;28;20034;-69
2022/03/31 10:57:25;;;;;;;25.80;19.13;;;;;;;;;;5024313;28;20452;-71
2022/03/31 11:00:11;;;;;;;23.73;19.48;;;;;;;;;;5024334;28;20029;-72
2022/03/31 11:02:57;;;;;;;26.70;20.88;;;;;;;;;;5028510;28;20484;-69
2022/03/31 11:05:42;;;;;;;26.70;20.15;;;;;;;;;;5033709;28;20061;-68
2022/03/31 11:08:27;;;;;;;24.95;20.85;;;;;;;;;;5035361;28;20033;-68
2022/03/31 11:11:22;;;;;;;27.58;20.13;;;;;;;;;;5020594;28;20021;-65
2022/03/31 11:14:08;;;;;;;25.60;20.20;;;;;;;;;;5035951;28;20090;-65
2022/03/31 11:16:54;;;;;;;25.95;19.40;;;;;;;;;;5034518;28;20108;-65
2022/03/31 11:19:39;;;;;;;26.85;21.55;;;;;;;;;;5019019;28;20067;-65
2022/03/31 11:22:28;;;;;;;26.95;21.02;;;;;;;;;;5032855;28;20021;-60
2022/03/31 11:25:14;;;;;;;28.70;22.02;;;;;;;;;;5035115;28;20042;-64
2022/03/31 11:28:06;;;;;;;26.98;21.00;;;;;;;;;;5036620;28;20376;-67
2022/03/31 11:30:54;;;;;;;25.92;21.13;;;;;;;;;;5049369;28;20100;-66
2022/03/31 11:33:39;;;;;;;28.65;20.95;;;;;;;;;;5036651;28;20587;-46
2022/03/31 11:36:35;;;;;;;26.73;20.30;;;;;;;;;;5035675;28;20464;-61
2022/03/31 11:39:28;;;;;;;27.60;21.13;;;;;;;;;;5037163;28;20046;-62
2022/03/31 11:42:13;;;;;;;28.02;21.33;;;;;;;;;;5036375;28;20029;-64
2022/03/31 11:44:58;;;;;;;23.92;20.13;;;;;;;;;;5035053;28;20590;-61
2022/03/31 11:47:54;;;;;;;28.77;20.42;;;;;;;;;;5037050;28;20025;-61
2022/03/31 11:50:47;;;;;;;28.02;22.20;;;;;;;;;;5044614;28;20036;-62
2022/03/31 11:53:34;;;;;;;27.40;22.23;;;;;;;;;;5021225;28;20124;-62
2022/03/31 11:56:22;;;;;;;25.95;20.10;;;;;;;;;;5036403;28;20025;-63
2022/03/31 11:59:08;;;;;;;28.70;20.40;;;;;;;;;;5040574;28;20028;-63
2022/03/31 12:01:53;;;;;;;27.42;21.48;;;;;;;;;;5035168;28;20033;-61
2022/03/31 12:04:38;;;;;;;25.73;20.27;;;;;;;;;;5030990;28;20082;-61
2022/03/31 12:07:23;;;;;;;28.48;20.00;;;;;;;;;;5036369;28;20051;-61
2022/03/31 12:10:09;;;;;;;28.92;19.90;;;;;;;;;;5035110;28;20025;-62
2022/03/31 12:12:55;;;;;;;27.02;19.52;;;;;;;;;;5017934;28;20095;-62
2022/03/31 12:15:41;;;;;;;26.25;20.40;;;;;;;;;;5034479;28;20025;-62
2022/03/31 12:18:30;;;;;;;26.55;19.10;;;;;;;;;;5048232;28;20068;-61
2022/03/31 12:21:15;;;;;;;23.80;20.05;;;;;;;;;;5034385;28;20082;-62
2022/03/31 12:24:02;;;;;;;26.25;18.42;;;;;;;;;;5035225;28;20044;-62
2022/03/31 12:26:54;;;;;;;23.00;18.48;;;;;;;;;;5031096;28;20039;-63
2022/03/31 12:29:39;;;;;;;26.65;19.00;;;;;;;;;;5029602;28;20032;-61
2022/03/31 12:32:25;;;;;;;24.10;19.35;;;;;;;;;;5021633;28;20059;-61
2022/03/31 12:35:10;;;;;;;22.02;17.77;;;;;;;;;;5034994;28;20418;-60
2022/03/31 12:37:55;;;;;;;24.52;19.20;;;;;;;;;;5036070;28;20033;-62
2022/03/31 12:40:43;;;;;;;24.15;17.80;;;;;;;;;;5030699;28;20395;-60
2022/03/31 12:43:28;;;;;;;22.38;18.23;;;;;;;;;;5033816;28;20531;-61
2022/03/31 12:46:16;;;;;;;24.33;18.90;;;;;;;;;;5035384;28;20040;-60
2022/03/31 12:49:04;;;;;;;23.25;18.30;;;;;;;;;;5043883;28;20043;-60
2022/03/31 12:51:51;;;;;;;23.00;18.58;;;;;;;;;;5031130;28;20392;-60
2022/03/31 12:54:38;;;;;;;23.15;18.40;;;;;;;;;;5036931;28;20036;-61
2022/03/31 12:57:24;;;;;;;24.70;19.25;;;;;;;;;;5034280;28;20033;-64
2022/03/31 13:00:12;;;;;;;26.08;19.55;;;;;;;;;;5036195;28;20037;-64
2022/03/31 13:02:57;;;;;;;25.38;19.08;;;;;;;;;;5033833;28;20025;-66
2022/03/31 13:05:44;;;;;;;27.45;21.15;;;;;;;;;;5033870;28;20036;-67
2022/03/31 13:08:29;;;;;;;25.20;18.25;;;;;;;;;;5033795;28;20033;-62
2022/03/31 13:11:15;;;;;;;25.67;18.80;;;;;;;;;;5039215;28;20025;-63
2022/03/31 13:14:00;;;;;;;26.10;18.73;;;;;;;;;;5032292;28;20119;-63
2022/03/31 13:16:46;;;;;;;22.98;18.33;;;;;;;;;;5029873;28;20033;-64
2022/03/31 13:19:32;;;;;;;23.20;17.90;;;;;;;;;;5033282;28;20032;-61
2022/03/31 13:22:23;;;;;;;24.85;19.05;;;;;;;;;;5033967;28;20107;-65
2022/03/31 13:25:09;;;;;;;24.70;20.33;;;;;;;;;;5028043;28;20039;-65
2022/03/31 13:27:54;;;;;;;23.33;17.42;;;;;;;;;;5033351;28;20025;-61
2022/03/31 13:30:40;;;;;;;22.60;17.92;;;;;;;;;;5033984;28;20114;-61
2022/03/31 13:33:25;;;;;;;25.92;19.52;;;;;;;;;;5032464;28;20036;-64
2022/03/31 13:36:10;;;;;;;21.67;16.42;;;;;;;;;;5032775;28;20463;-62
2022/03/31 13:38:55;;;;;;;23.52;19.00;;;;;;;;;;5017873;28;20037;-61
2022/03/31 13:41:41;;;;;;;25.45;19.08;;;;;;;;;;5033498;28;20368;-64
2022/03/31 13:44:27;;;;;;;26.58;19.83;;;;;;;;;;5033783;28;20021;-61
2022/03/31 13:47:13;;;;;;;25.30;19.05;;;;;;;;;;5033823;28;20032;-64
2022/03/31 13:49:58;;;;;;;23.63;18.25;;;;;;;;;;5034748;28;20387;-61
2022/03/31 13:52:45;;;;;;;27.92;19.20;;;;;;;;;;5034864;28;20033;-61
2022/03/31 13:55:30;;;;;;;27.77;18.73;;;;;;;;;;5031743;28;20027;-59
2022/03/31 14:01:19;;;;;;;23.85;19.33;;;;;;;;;;5046091;28;20039;-60
2022/03/31 14:04:06;;;;;;;22.00;17.75;;;;;;;;;;5033206;28;20057;-62
2022/03/31 14:06:52;;;;;;;24.00;19.55;;;;;;;;;;5032682;28;20053;-62
2022/03/31 14:09:37;;;;;;;25.02;19.13;;;;;;;;;;5046966;28;20048;-63
2022/03/31 14:12:22;;;;;;;25.83;19.60;;;;;;;;;;5033342;28;20021;-60
2022/03/31 14:15:09;;;;;;;26.30;20.40;;;;;;;;;;5032054;28;20095;-60
2022/03/31 14:17:56;;;;;;;25.65;20.45;;;;;;;;;;5044988;28;20219;-60
2022/03/31 14:20:41;;;;;;;26.08;20.45;;;;;;;;;;5014459;28;20483;-61
2022/03/31 14:23:27;;;;;;;25.98;19.40;;;;;;;;;;5033546;28;20025;-62
2022/03/31 14:26:13;;;;;;;28.00;20.60;;;;;;;;;;5031971;28;20103;-63
2022/03/31 14:28:58;;;;;;;28.35;21.70;;;;;;;;;;5032971;28;20028;-60
2022/03/31 14:31:45;;;;;;;29.50;21.85;;;;;;;;;;5029961;28;20037;-59
2022/03/31 14:34:31;;;;;;;31.58;23.00;;;;;;;;;;5046686;28;20037;-62
2022/03/31 14:37:17;;;;;;;29.83;21.77;;;;;;;;;;5044982;28;20039;-60
2022/03/31 14:40:03;;;;;;;26.52;21.15;;;;;;;;;;5032879;28;20036;-60
2022/03/31 14:42:49;;;;;;;27.90;21.40;;;;;;;;;;5032769;28;20028;-60
2022/03/31 14:45:34;;;;;;;31.13;23.30;;;;;;;;;;5033735;28;20044;-63
2022/03/31 14:48:20;;;;;;;27.20;21.83;;;;;;;;;;5031683;28;20107;-61
2022/03/31 14:51:05;;;;;;;28.92;21.40;;;;;;;;;;5045427;28;20033;-61
2022/03/31 14:53:51;;;;;;;31.00;23.20;;;;;;;;;;5031849;28;20041;-59
2022/03/31 14:56:37;;;;;;;30.75;22.42;;;;;;;;;;5043423;28;20264;-60
2022/03/31 14:59:22;;;;;;;32.28;23.55;;;;;;;;;;5033365;28;20040;-61
2022/03/31 15:02:07;;;;;;;27.67;21.45;;;;;;;;;;5031871;28;20033;-62
2022/03/31 15:04:53;;;;;;;31.80;22.50;;;;;;;;;;5033466;28;20029;-65
2022/03/31 15:07:39;;;;;;;30.45;22.92;;;;;;;;;;5030785;28;20112;-61
2022/03/31 15:16:32;;;;;;;32.42;23.88;;;;;;;;;;5037660;28;20056;-63
2022/03/31 15:19:18;;;;;;;29.35;20.85;;;;;;;;;;5031536;28;20393;-60
2022/03/31 15:22:03;;;;;;;31.52;21.95;;;;;;;;;;5032220;28;20083;-61
2022/03/31 15:24:48;;;;;;;31.83;22.58;;;;;;;;;;5028432;28;20060;-63
2022/03/31 15:27:34;;;;;;;32.60;22.65;;;;;;;;;;5046423;28;20662;-62
2022/03/31 15:30:19;;;;;;;31.65;22.65;;;;;;;;;;5032079;28;20036;-62
2022/03/31 15:33:05;;;;;;;30.17;22.08;;;;;;;;;;5036470;28;20059;-63
2022/03/31 15:35:52;;;;;;;33.10;22.98;;;;;;;;;;5031863;28;20486;-65
2022/03/31 15:38:37;;;;;;;32.92;22.80;;;;;;;;;;5035500;28;20025;-65
2022/03/31 15:41:23;;;;;;;32.42;22.45;;;;;;;;;;5039475;28;20032;-60
2022/03/31 15:44:08;;;;;;;32.38;22.58;;;;;;;;;;5042228;28;20037;-61
2022/03/31 15:46:55;;;;;;;29.13;22.15;;;;;;;;;;5035273;28;20484;-62
2022/03/31 15:49:40;;;;;;;29.42;21.42;;;;;;;;;;5034866;28;20039;-61
2022/03/31 15:52:26;;;;;;;29.88;22.13;;;;;;;;;;5039571;28;20057;-62
2022/03/31 15:55:13;;;;;;;30.45;22.27;;;;;;;;;;5034066;28;20029;-62
2022/03/31 15:57:59;;;;;;;28.00;22.13;;;;;;;;;;5034096;28;20052;-62
2022/03/31 16:00:44;;;;;;;30.35;22.65;;;;;;;;;;5030803;28;20041;-64
2022/03/31 16:03:29;;;;;;;32.10;22.80;;;;;;;;;;5039949;28;20033;-63
2022/03/31 16:06:15;;;;;;;31.60;21.48;;;;;;;;;;5034215;28;20114;-65
2022/03/31 16:09:00;;;;;;;29.60;21.48;;;;;;;;;;5028682;28;20542;-65
2022/03/31 16:11:46;;;;;;;28.80;21.38;;;;;;;;;;5038923;28;20036;-63
2022/03/31 16:14:31;;;;;;;30.52;23.25;;;;;;;;;;5049048;28;20033;-63
2022/03/31 16:17:16;;;;;;;30.25;21.50;;;;;;;;;;5034194;28;20741;-63
2022/03/31 16:20:02;;;;;;;30.25;21.38;;;;;;;;;;5034299;28;20032;-65
2022/03/31 16:22:48;;;;;;;28.88;21.65;;;;;;;;;;5035250;28;20383;-66
2022/03/31 16:25:33;;;;;;;30.30;22.40;;;;;;;;;;5033465;28;20029;-64